Time;durP1;ratioP1;P1;durP2;ratioP2;P2;SDS_P1;SDS_P2;PMS_P1;PMS_P2;Temp;Humidity;BMP_temperature;BMP_pressure;BME280_temperature;BME280_humidity;BME280_pressure;Samples;Min_cycle;Max_cycle;Signal;HPM_P1;HPM_P2
2024/01/30 00:00:23;;;;;;;16.27;12.52;;;7.60;99.90;;;;;;5071134;28;20036;-63
2024/01/30 00:02:51;;;;;;;17.15;12.10;;;7.60;99.90;;;;;;5070748;28;20053;-63
2024/01/30 00:05:19;;;;;;;15.80;13.02;;;7.60;99.90;;;;;;5070154;28;20060;-63
2024/01/30 00:07:45;;;;;;;16.40;13.75;;;7.60;99.90;;;;;;5071713;28;20049;-63
2024/01/30 00:10:11;;;;;;;18.63;12.90;;;7.30;99.90;;;;;;5067616;28;20057;-62
2024/01/30 00:12:38;;;;;;;16.52;13.25;;;7.30;99.90;;;;;;5050356;28;20061;-62
2024/01/30 00:15:04;;;;;;;20.90;13.90;;;7.30;99.90;;;;;;5051587;28;20052;-63
2024/01/30 00:17:31;;;;;;;16.77;13.35;;;7.20;99.90;;;;;;5051388;28;20045;-63
2024/01/30 00:19:57;;;;;;;20.13;13.60;;;7.20;99.90;;;;;;5051547;28;20049;-63
2024/01/30 00:22:24;;;;;;;17.08;12.55;;;7.30;99.90;;;;;;5051450;28;20057;-63
2024/01/30 00:24:50;;;;;;;18.05;13.73;;;7.40;99.90;;;;;;5051382;28;20040;-63
2024/01/30 00:27:16;;;;;;;17.13;13.70;;;7.40;99.90;;;;;;5050855;28;20729;-63
2024/01/30 00:29:44;;;;;;;20.13;12.90;;;7.20;99.90;;;;;;5050235;28;20074;-63
2024/01/30 00:32:10;;;;;;;16.90;12.52;;;7.10;99.90;;;;;;5050472;28;20350;-63
2024/01/30 00:34:36;;;;;;;18.45;12.27;;;7.10;99.90;;;;;;5051281;28;20072;-64
2024/01/30 00:37:03;;;;;;;18.35;13.68;;;7.10;99.90;;;;;;5051006;28;20355;-63
2024/01/30 00:39:30;;;;;;;18.02;13.52;;;7.10;99.90;;;;;;5051341;28;20045;-63
2024/01/30 00:41:56;;;;;;;18.33;12.90;;;7.10;99.90;;;;;;5051217;28;20057;-63
2024/01/30 00:44:24;;;;;;;16.42;12.32;;;7.30;99.90;;;;;;5051581;28;20053;-62
2024/01/30 00:46:51;;;;;;;19.85;12.80;;;7.10;99.90;;;;;;5049770;28;20064;-62
2024/01/30 00:49:18;;;;;;;17.55;13.38;;;7.00;99.90;;;;;;5050787;28;20465;-62
2024/01/30 00:51:46;;;;;;;16.15;12.23;;;7.20;99.90;;;;;;5064275;28;20048;-62
2024/01/30 00:54:15;;;;;;;15.43;12.55;;;7.20;99.90;;;;;;5067259;28;20056;-62
2024/01/30 00:56:42;;;;;;;15.43;11.73;;;7.10;99.90;;;;;;5069729;28;20048;-62
2024/01/30 00:59:08;;;;;;;16.42;11.95;;;6.90;99.90;;;;;;5071546;28;20048;-63
2024/01/30 01:01:34;;;;;;;15.35;12.75;;;7.10;99.90;;;;;;5070360;28;20228;-63
2024/01/30 01:04:00;;;;;;;18.05;12.48;;;6.90;99.90;;;;;;5070041;28;20346;-63
2024/01/30 01:06:27;;;;;;;16.67;12.18;;;7.00;99.90;;;;;;5070339;28;20048;-63
2024/01/30 01:08:53;;;;;;;16.27;12.07;;;7.00;99.90;;;;;;5071088;28;20412;-62
2024/01/30 01:11:19;;;;;;;17.15;12.77;;;6.70;99.90;;;;;;5058909;28;20509;-62
2024/01/30 01:13:45;;;;;;;15.98;12.98;;;6.80;99.90;;;;;;5050898;28;20064;-63
2024/01/30 01:16:12;;;;;;;16.30;12.27;;;6.90;99.90;;;;;;5050620;28;20519;-62
2024/01/30 01:18:38;;;;;;;17.25;13.18;;;6.90;99.90;;;;;;5050912;28;20056;-63
2024/01/30 01:21:06;;;;;;;20.60;12.40;;;6.90;99.90;;;;;;5050752;28;20474;-63
2024/01/30 01:23:32;;;;;;;16.65;12.40;;;6.70;99.90;;;;;;5050985;28;20068;-63
2024/01/30 01:25:59;;;;;;;17.48;12.70;;;6.70;99.90;;;;;;5054694;28;20148;-64
2024/01/30 01:28:25;;;;;;;17.42;13.23;;;6.80;99.90;;;;;;5053628;28;20052;-63
2024/01/30 01:30:52;;;;;;;19.55;13.27;;;6.90;99.90;;;;;;5055386;28;20053;-62
2024/01/30 01:33:19;;;;;;;17.95;13.23;;;6.70;99.90;;;;;;5054290;28;20049;-63
2024/01/30 01:35:45;;;;;;;16.02;12.48;;;6.90;99.90;;;;;;5054065;28;20080;-62
2024/01/30 01:38:13;;;;;;;18.58;12.80;;;6.80;99.90;;;;;;5054376;28;20085;-62
2024/01/30 01:40:39;;;;;;;15.85;12.38;;;6.60;99.90;;;;;;5060413;28;20106;-62
2024/01/30 01:43:06;;;;;;;19.15;13.48;;;6.90;99.90;;;;;;5074443;28;20354;-62
2024/01/30 01:45:32;;;;;;;19.60;13.48;;;6.60;99.90;;;;;;5074233;28;20106;-62
2024/01/30 01:47:58;;;;;;;15.60;12.05;;;6.90;99.90;;;;;;5076639;28;20044;-62
2024/01/30 01:50:26;;;;;;;17.58;12.13;;;6.70;99.90;;;;;;5076529;28;20487;-63
2024/01/30 01:52:53;;;;;;;19.55;12.52;;;6.70;99.90;;;;;;5076493;28;20059;-62
2024/01/30 01:55:25;;;;;;;16.77;12.30;;;6.70;99.90;;;;;;5076402;28;20048;-62
2024/01/30 01:57:53;;;;;;;15.60;12.25;;;6.60;99.90;;;;;;5075933;28;20045;-62
2024/01/30 02:00:20;;;;;;;16.48;12.35;;;6.90;99.90;;;;;;5076251;28;20048;-62
2024/01/30 02:02:47;;;;;;;17.50;12.15;;;6.80;99.90;;;;;;5058526;28;20458;-62
2024/01/30 02:05:14;;;;;;;18.17;12.50;;;6.80;99.90;;;;;;5056584;28;20160;-62
2024/01/30 02:07:41;;;;;;;14.77;12.05;;;6.50;99.90;;;;;;5056437;28;20461;-62
2024/01/30 02:10:09;;;;;;;15.07;11.85;;;6.70;99.90;;;;;;5055294;28;20068;-62
2024/01/30 02:12:35;;;;;;;16.88;12.43;;;6.60;99.90;;;;;;5055527;28;20401;-62
2024/01/30 02:15:02;;;;;;;15.90;12.43;;;6.30;99.90;;;;;;5054594;28;20051;-62
2024/01/30 02:17:28;;;;;;;16.65;12.45;;;6.40;99.90;;;;;;5054295;28;20385;-62
2024/01/30 02:19:55;;;;;;;16.30;12.30;;;6.50;99.90;;;;;;5054963;28;20045;-62
2024/01/30 02:22:22;;;;;;;17.80;13.20;;;6.20;99.90;;;;;;5073945;28;20045;-62
2024/01/30 02:24:48;;;;;;;16.63;12.52;;;6.40;99.90;;;;;;5074993;28;20063;-63
2024/01/30 02:27:15;;;;;;;16.52;13.27;;;6.20;99.90;;;;;;5073927;28;20059;-63
2024/01/30 02:29:41;;;;;;;16.95;11.85;;;6.20;99.90;;;;;;5074167;28;20354;-62
2024/01/30 02:32:07;;;;;;;16.42;12.13;;;6.10;99.90;;;;;;5075214;28;20045;-63
2024/01/30 02:34:34;;;;;;;15.60;11.95;;;6.10;99.90;;;;;;5075068;28;20059;-62
2024/01/30 02:37:03;;;;;;;15.88;11.38;;;6.30;99.90;;;;;;5072961;28;20060;-61
2024/01/30 02:39:29;;;;;;;15.85;11.27;;;6.00;99.90;;;;;;5073497;28;20059;-62
2024/01/30 02:41:56;;;;;;;15.50;12.00;;;6.00;99.90;;;;;;5057131;28;20114;-63
2024/01/30 02:44:23;;;;;;;15.45;12.05;;;6.20;99.90;;;;;;5052595;28;20067;-62
2024/01/30 02:46:49;;;;;;;16.38;12.10;;;6.00;99.90;;;;;;5053221;28;20095;-62
2024/01/30 02:49:16;;;;;;;15.30;11.88;;;6.00;99.90;;;;;;5053415;28;20064;-63
2024/01/30 02:51:42;;;;;;;18.67;12.30;;;6.20;99.90;;;;;;5051994;28;20053;-62
2024/01/30 02:54:09;;;;;;;15.98;12.43;;;6.00;99.90;;;;;;5052113;28;20063;-63
2024/01/30 02:56:35;;;;;;;15.57;11.18;;;5.90;99.90;;;;;;5053075;28;20052;-64
2024/01/30 02:59:01;;;;;;;14.55;11.85;;;5.90;99.90;;;;;;5053044;28;20351;-63
2024/01/30 03:01:29;;;;;;;15.82;12.15;;;6.10;99.90;;;;;;5062918;28;20353;-62
2024/01/30 03:03:55;;;;;;;15.93;10.75;;;6.10;99.90;;;;;;5073477;28;20429;-62
2024/01/30 03:06:22;;;;;;;17.35;11.63;;;6.10;99.90;;;;;;5074396;28;20368;-62
2024/01/30 03:08:49;;;;;;;15.65;11.30;;;5.80;99.90;;;;;;5074932;28;20053;-62
2024/01/30 03:11:15;;;;;;;15.90;11.85;;;5.80;99.90;;;;;;5074336;28;20067;-62
2024/01/30 03:13:41;;;;;;;16.58;12.05;;;5.90;99.90;;;;;;5075068;28;20049;-62
2024/01/30 03:16:08;;;;;;;16.35;11.38;;;6.10;99.90;;;;;;5073691;28;20045;-63
2024/01/30 03:18:34;;;;;;;19.58;12.38;;;6.20;99.90;;;;;;5071801;28;20036;-63
2024/01/30 03:21:01;;;;;;;14.98;11.32;;;6.20;99.90;;;;;;5064933;28;20060;-63
2024/01/30 03:23:27;;;;;;;16.55;11.57;;;6.00;99.90;;;;;;5052766;28;20134;-63
2024/01/30 03:25:53;;;;;;;15.38;11.52;;;6.20;99.90;;;;;;5052470;28;20048;-62
2024/01/30 03:28:20;;;;;;;16.10;11.60;;;6.00;99.90;;;;;;5051467;28;20052;-62
2024/01/30 03:30:46;;;;;;;16.15;11.70;;;6.30;99.90;;;;;;5057848;28;20044;-62
2024/01/30 03:33:13;;;;;;;17.88;11.80;;;6.10;99.90;;;;;;5072878;28;20060;-62
2024/01/30 03:35:39;;;;;;;17.20;11.23;;;6.30;99.90;;;;;;5072429;28;20056;-62
2024/01/30 03:38:06;;;;;;;15.57;11.90;;;6.20;99.90;;;;;;5071435;28;20053;-62
2024/01/30 03:40:32;;;;;;;16.13;11.73;;;6.20;99.90;;;;;;5070562;28;20048;-62
2024/01/30 03:42:59;;;;;;;13.18;10.57;;;6.40;99.90;;;;;;5072290;28;20055;-62
2024/01/30 03:45:26;;;;;;;12.95;10.75;;;6.50;99.90;;;;;;5071023;28;20045;-62
2024/01/30 03:47:52;;;;;;;16.38;10.90;;;6.40;99.90;;;;;;5071282;28;20403;-62
2024/01/30 03:50:20;;;;;;;16.85;11.65;;;6.40;99.90;;;;;;5070157;28;20052;-62
2024/01/30 03:52:46;;;;;;;15.07;10.93;;;6.40;99.90;;;;;;5051948;28;20466;-62
2024/01/30 03:55:12;;;;;;;14.55;11.13;;;6.80;99.90;;;;;;5052028;28;20458;-62
2024/01/30 03:57:39;;;;;;;14.25;10.45;;;6.70;99.90;;;;;;5052054;28;20049;-62
2024/01/30 04:00:06;;;;;;;15.38;11.27;;;6.90;99.90;;;;;;5052108;28;20045;-63
2024/01/30 04:02:32;;;;;;;15.25;10.80;;;6.60;99.90;;;;;;5071273;28;20056;-62
2024/01/30 04:04:59;;;;;;;15.13;10.70;;;6.80;99.90;;;;;;5070330;28;20053;-62
2024/01/30 04:07:26;;;;;;;15.15;11.65;;;7.00;99.90;;;;;;5070694;28;20378;-62
2024/01/30 04:09:53;;;;;;;15.82;10.60;;;6.80;99.90;;;;;;5071295;28;20063;-63
2024/01/30 04:12:20;;;;;;;11.98;9.65;;;7.00;99.90;;;;;;5071237;28;20052;-63
2024/01/30 04:14:46;;;;;;;14.38;11.32;;;6.80;99.90;;;;;;5071445;28;20060;-63
2024/01/30 04:17:12;;;;;;;18.02;11.05;;;6.90;99.90;;;;;;5071553;28;20044;-63
2024/01/30 04:19:39;;;;;;;13.52;11.20;;;6.90;99.90;;;;;;5071571;28;20049;-64
2024/01/30 04:22:05;;;;;;;18.63;11.27;;;7.00;99.90;;;;;;5055352;28;20045;-63
2024/01/30 04:24:33;;;;;;;13.48;9.73;;;7.20;99.90;;;;;;5050347;28;20059;-62
2024/01/30 04:26:59;;;;;;;13.30;9.65;;;7.10;99.90;;;;;;5051206;28;20049;-63
2024/01/30 04:29:27;;;;;;;14.52;10.82;;;7.20;99.90;;;;;;5051162;28;20515;-62
2024/01/30 04:31:53;;;;;;;13.70;10.40;;;7.20;99.90;;;;;;5051444;28;20049;-62
2024/01/30 04:34:19;;;;;;;14.40;10.02;;;7.00;99.90;;;;;;5051487;28;20064;-64
2024/01/30 04:36:46;;;;;;;14.85;10.20;;;7.20;99.90;;;;;;5050642;28;20056;-62
2024/01/30 04:39:13;;;;;;;17.10;11.98;;;7.30;99.90;;;;;;5033828;28;20056;-62
2024/01/30 04:41:39;;;;;;;15.10;11.07;;;7.10;99.90;;;;;;5063058;28;20071;-62
2024/01/30 04:44:06;;;;;;;15.75;11.00;;;7.10;99.90;;;;;;5071323;28;20053;-62
2024/01/30 04:46:34;;;;;;;14.10;10.80;;;7.40;99.90;;;;;;5053239;28;20048;-62
2024/01/30 04:49:00;;;;;;;14.82;10.70;;;7.40;99.90;;;;;;5071476;28;20044;-62
2024/01/30 04:51:26;;;;;;;12.68;10.63;;;7.30;99.90;;;;;;5070471;28;20115;-62
2024/01/30 04:53:53;;;;;;;14.75;11.10;;;7.30;99.90;;;;;;5071237;28;20117;-62
2024/01/30 04:56:19;;;;;;;13.88;10.48;;;7.20;99.90;;;;;;5071048;28;20048;-62
2024/01/30 04:58:45;;;;;;;14.75;10.55;;;7.40;99.90;;;;;;5071336;28;20449;-63
2024/01/30 05:01:16;;;;;;;15.82;10.35;;;7.20;99.90;;;;;;5073053;28;20377;-63
2024/01/30 05:03:42;;;;;;;13.00;10.38;;;7.40;99.90;;;;;;5077865;28;20045;-63
2024/01/30 05:06:09;;;;;;;13.45;10.05;;;7.20;99.90;;;;;;5077030;28;20102;-63
2024/01/30 05:08:39;;;;;;;13.85;11.05;;;7.30;99.90;;;;;;5077150;28;20052;-63
2024/01/30 05:11:05;;;;;;;15.02;10.45;;;7.30;99.90;;;;;;5076814;28;20423;-62
2024/01/30 05:13:32;;;;;;;14.68;11.50;;;7.20;99.90;;;;;;5077978;28;20056;-62
2024/01/30 05:16:03;;;;;;;14.00;11.00;;;7.40;99.90;;;;;;5075198;28;20055;-62
2024/01/30 05:18:29;;;;;;;15.98;10.32;;;7.30;99.90;;;;;;5070769;28;20453;-62
2024/01/30 05:20:55;;;;;;;13.00;9.60;;;7.20;99.90;;;;;;5074779;28;20046;-62
2024/01/30 05:23:22;;;;;;;13.25;10.27;;;7.50;99.90;;;;;;5074831;28;20127;-62
2024/01/30 05:25:48;;;;;;;14.95;10.93;;;7.20;99.90;;;;;;5069124;28;20045;-63
2024/01/30 05:28:14;;;;;;;17.90;10.65;;;7.40;99.90;;;;;;5073180;28;20056;-63
2024/01/30 05:30:42;;;;;;;12.85;10.52;;;7.20;99.90;;;;;;5071296;28;20040;-63
2024/01/30 05:33:09;;;;;;;13.10;10.23;;;7.20;99.90;;;;;;5074409;28;20148;-62
2024/01/30 05:35:37;;;;;;;14.70;10.68;;;7.20;99.90;;;;;;5073175;28;20052;-62
2024/01/30 05:38:04;;;;;;;14.25;10.27;;;7.50;99.90;;;;;;5071298;28;20053;-62
2024/01/30 05:40:31;;;;;;;15.35;10.35;;;7.30;99.90;;;;;;5071413;28;20376;-62
2024/01/30 05:43:02;;;;;;;13.93;10.18;;;7.40;99.90;;;;;;5062387;28;20047;-63
2024/01/30 05:45:28;;;;;;;15.30;10.32;;;7.40;99.90;;;;;;5064289;28;20060;-63
2024/01/30 05:47:55;;;;;;;14.43;9.98;;;7.40;99.90;;;;;;5073502;28;20053;-62
2024/01/30 05:50:23;;;;;;;12.52;9.75;;;7.30;99.90;;;;;;5071263;28;20059;-61
2024/01/30 05:52:49;;;;;;;13.88;10.20;;;7.40;99.90;;;;;;5071468;28;20495;-62
2024/01/30 05:55:16;;;;;;;14.50;10.00;;;7.30;99.90;;;;;;5073180;28;20056;-61
2024/01/30 05:57:42;;;;;;;13.13;9.88;;;7.50;99.90;;;;;;5071384;28;20041;-62
2024/01/30 06:00:09;;;;;;;14.90;10.55;;;7.50;99.90;;;;;;5075813;28;20055;-62
2024/01/30 06:02:36;;;;;;;14.68;9.65;;;7.30;99.90;;;;;;5075079;28;20044;-62
2024/01/30 06:05:05;;;;;;;13.52;9.98;;;7.30;99.90;;;;;;5073172;28;20044;-63
2024/01/30 06:07:31;;;;;;;13.10;10.63;;;7.20;99.90;;;;;;5072868;28;20057;-63
2024/01/30 06:10:00;;;;;;;11.55;9.40;;;7.30;99.90;;;;;;5071983;28;20048;-63
2024/01/30 06:12:27;;;;;;;15.43;10.40;;;7.20;99.90;;;;;;5071933;28;20059;-62
2024/01/30 06:14:56;;;;;;;12.25;9.88;;;7.30;99.90;;;;;;5072270;28;20052;-63
2024/01/30 06:17:23;;;;;;;14.65;10.57;;;7.50;99.90;;;;;;5071507;28;20083;-62
2024/01/30 06:19:50;;;;;;;12.98;9.82;;;7.30;99.90;;;;;;5071495;28;20456;-63
2024/01/30 06:22:16;;;;;;;13.93;9.82;;;7.20;99.90;;;;;;5055151;28;20488;-62
2024/01/30 06:24:50;;;;;;;13.73;9.77;;;7.40;99.90;;;;;;5052386;28;20060;-63
2024/01/30 06:27:17;;;;;;;12.68;9.85;;;7.40;99.90;;;;;;5052864;28;20052;-62
2024/01/30 06:29:44;;;;;;;13.50;10.57;;;7.50;99.90;;;;;;5052594;28;20076;-62
2024/01/30 06:32:10;;;;;;;12.48;9.50;;;7.40;99.90;;;;;;5051996;28;20059;-63
2024/01/30 06:34:38;;;;;;;16.17;9.88;;;7.40;99.90;;;;;;5051954;28;20044;-63
2024/01/30 06:37:05;;;;;;;13.40;10.07;;;7.50;99.90;;;;;;5051455;28;20045;-62
2024/01/30 06:39:32;;;;;;;13.00;9.70;;;7.60;99.90;;;;;;5052299;28;20407;-63
2024/01/30 06:41:58;;;;;;;13.65;10.63;;;7.60;99.90;;;;;;5064329;28;20059;-63
2024/01/30 06:44:24;;;;;;;13.35;9.68;;;7.60;99.90;;;;;;5072316;28;20048;-62
2024/01/30 06:46:51;;;;;;;13.55;9.82;;;7.60;99.90;;;;;;5070509;28;20048;-62
2024/01/30 06:49:17;;;;;;;12.77;10.30;;;7.60;99.90;;;;;;5072241;28;20139;-61
2024/01/30 06:51:46;;;;;;;14.70;9.35;;;7.60;99.90;;;;;;5060207;28;20057;-61
2024/01/30 06:54:12;;;;;;;13.02;9.57;;;7.60;99.90;;;;;;5052296;28;20049;-64
2024/01/30 06:56:38;;;;;;;13.10;10.15;;;7.50;99.90;;;;;;5051802;28;20056;-63
2024/01/30 06:59:05;;;;;;;11.52;9.45;;;7.60;99.90;;;;;;5059065;28;20048;-62
2024/01/30 07:01:32;;;;;;;13.75;9.23;;;7.60;99.90;;;;;;5061203;28;20048;-63
2024/01/30 07:03:58;;;;;;;15.98;9.98;;;7.60;99.90;;;;;;5052953;28;20068;-62
2024/01/30 07:06:24;;;;;;;18.17;10.55;;;7.60;99.90;;;;;;5053779;28;20051;-62
2024/01/30 07:08:51;;;;;;;11.88;9.93;;;7.60;99.90;;;;;;5054277;28;20417;-61
2024/01/30 07:11:24;;;;;;;14.35;10.10;;;7.70;99.90;;;;;;5060966;28;20071;-62
2024/01/30 07:13:51;;;;;;;14.10;10.07;;;7.70;99.90;;;;;;5074446;28;20052;-62
2024/01/30 07:16:17;;;;;;;13.10;10.57;;;7.60;99.90;;;;;;5073755;28;20102;-62
2024/01/30 07:18:44;;;;;;;15.55;9.55;;;7.80;99.90;;;;;;5073875;28;20080;-62
2024/01/30 07:21:10;;;;;;;15.55;9.95;;;7.80;99.90;;;;;;5066392;28;20144;-63
2024/01/30 07:23:38;;;;;;;14.70;10.30;;;7.90;99.90;;;;;;5052746;28;20041;-62
2024/01/30 07:26:06;;;;;;;12.77;9.70;;;7.90;99.90;;;;;;5053380;28;20049;-63
2024/01/30 07:28:33;;;;;;;13.07;10.10;;;7.70;99.90;;;;;;5053084;28;20056;-63
2024/01/30 07:30:59;;;;;;;13.70;9.75;;;7.80;99.90;;;;;;5053887;28;20052;-62
2024/01/30 07:33:26;;;;;;;14.45;10.32;;;7.90;99.90;;;;;;5053491;28;20086;-62
2024/01/30 07:35:53;;;;;;;12.82;8.98;;;7.80;99.90;;;;;;5053520;28;20416;-62
2024/01/30 07:38:22;;;;;;;14.38;9.77;;;7.70;99.90;;;;;;5051188;28;20370;-62
2024/01/30 07:40:49;;;;;;;13.68;9.73;;;7.80;99.90;;;;;;5050597;28;20370;-63
2024/01/30 07:43:16;;;;;;;12.95;9.82;;;8.00;99.90;;;;;;5051247;28;20045;-63
2024/01/30 07:45:42;;;;;;;17.02;10.73;;;7.70;99.90;;;;;;5051171;28;20049;-63
2024/01/30 07:48:08;;;;;;;14.85;10.00;;;7.80;99.90;;;;;;5051272;28;20040;-62
2024/01/30 07:50:34;;;;;;;15.27;10.40;;;7.80;99.90;;;;;;5051363;28;20037;-63
2024/01/30 07:53:02;;;;;;;12.88;9.88;;;8.00;99.90;;;;;;5050993;28;20049;-63
2024/01/30 07:55:31;;;;;;;13.35;9.88;;;8.00;99.90;;;;;;5050582;28;20052;-63
2024/01/30 07:57:58;;;;;;;13.55;9.55;;;7.90;99.90;;;;;;5049790;28;20053;-63
2024/01/30 08:00:26;;;;;;;12.65;9.40;;;8.00;99.90;;;;;;5049900;28;20063;-62
2024/01/30 08:02:55;;;;;;;12.50;9.70;;;7.90;99.90;;;;;;5049983;28;20506;-63
2024/01/30 08:05:22;;;;;;;12.80;9.20;;;8.10;99.90;;;;;;5050414;28;20056;-64
2024/01/30 08:07:50;;;;;;;14.93;10.65;;;7.90;99.90;;;;;;5049264;28;20476;-63
2024/01/30 08:10:18;;;;;;;16.50;9.95;;;7.90;99.90;;;;;;5050124;28;20064;-62
2024/01/30 08:12:45;;;;;;;12.48;9.35;;;8.20;99.90;;;;;;5068739;28;20051;-63
2024/01/30 08:15:14;;;;;;;13.95;9.73;;;8.20;99.90;;;;;;5070243;28;20502;-62
2024/01/30 08:17:41;;;;;;;12.85;9.18;;;8.10;99.90;;;;;;5070521;28;20053;-63
2024/01/30 08:20:11;;;;;;;13.00;9.18;;;8.20;99.90;;;;;;5072133;28;20358;-63
2024/01/30 08:22:39;;;;;;;15.13;10.02;;;8.00;99.90;;;;;;5053956;28;20041;-62
2024/01/30 08:25:07;;;;;;;12.95;9.35;;;8.20;99.90;;;;;;5052468;28;20400;-62
2024/01/30 08:27:35;;;;;;;12.60;9.90;;;8.30;99.90;;;;;;5052550;28;20048;-62
2024/01/30 08:30:02;;;;;;;12.77;9.93;;;8.00;99.90;;;;;;5051935;28;20238;-63
2024/01/30 08:32:29;;;;;;;13.85;9.40;;;8.30;99.90;;;;;;5052059;28;20049;-62
2024/01/30 08:34:55;;;;;;;14.07;9.85;;;8.30;99.90;;;;;;5051796;28;20067;-62
2024/01/30 08:37:21;;;;;;;13.85;9.10;;;8.20;99.90;;;;;;5051539;28;20466;-62
2024/01/30 08:39:47;;;;;;;12.18;9.50;;;8.20;99.90;;;;;;5051879;28;20071;-62
2024/01/30 08:42:14;;;;;;;13.90;9.55;;;8.10;99.90;;;;;;5051437;28;20408;-62
2024/01/30 08:44:40;;;;;;;12.93;9.43;;;8.10;99.90;;;;;;5051507;28;20060;-62
2024/01/30 08:47:06;;;;;;;14.63;9.93;;;8.10;99.90;;;;;;5051684;28;20053;-62
2024/01/30 08:49:33;;;;;;;13.40;9.13;;;8.40;99.90;;;;;;5051726;28;20057;-63
2024/01/30 08:51:59;;;;;;;13.73;9.45;;;8.20;99.90;;;;;;5063862;28;20060;-62
2024/01/30 08:54:25;;;;;;;15.70;9.60;;;8.30;99.90;;;;;;5071503;28;20389;-63
2024/01/30 08:56:53;;;;;;;15.48;10.00;;;8.30;99.90;;;;;;5070734;28;20064;-63
2024/01/30 08:59:19;;;;;;;14.38;10.65;;;8.60;99.90;;;;;;5072028;28;20040;-62
2024/01/30 09:01:46;;;;;;;15.60;9.57;;;8.50;99.90;;;;;;5071128;28;20045;-62
2024/01/30 09:04:13;;;;;;;14.50;9.82;;;8.60;99.90;;;;;;5071940;28;20054;-62
2024/01/30 09:06:39;;;;;;;13.30;8.95;;;8.60;99.90;;;;;;5070642;28;20059;-62
2024/01/30 09:09:06;;;;;;;14.50;9.85;;;8.90;99.90;;;;;;5071629;28;20083;-62
2024/01/30 09:11:32;;;;;;;16.45;9.93;;;8.90;99.90;;;;;;5064055;28;20415;-62
2024/01/30 09:13:58;;;;;;;12.57;9.05;;;8.70;99.90;;;;;;5051591;28;20064;-63
2024/01/30 09:16:24;;;;;;;12.95;9.35;;;8.80;99.90;;;;;;5049763;28;20473;-62
2024/01/30 09:18:51;;;;;;;13.75;9.90;;;9.10;99.90;;;;;;5051353;28;20369;-62
2024/01/30 09:21:17;;;;;;;13.70;9.23;;;8.90;99.90;;;;;;5050613;28;20103;-62
2024/01/30 09:23:43;;;;;;;13.27;9.00;;;8.90;99.90;;;;;;5053420;28;20552;-63
2024/01/30 09:26:10;;;;;;;13.25;9.30;;;9.20;99.90;;;;;;5501675;22;20049;-62
2024/01/30 09:28:36;;;;;;;13.25;9.73;;;9.30;99.90;;;;;;5062645;28;20049;-61
2024/01/30 09:31:03;;;;;;;13.43;8.75;;;9.00;99.90;;;;;;5044256;28;20057;-63
2024/01/30 09:33:29;;;;;;;13.88;8.82;;;9.10;99.90;;;;;;5048033;28;20128;-62
2024/01/30 09:35:55;;;;;;;12.95;9.18;;;9.30;99.90;;;;;;5048584;28;20045;-62
2024/01/30 09:38:22;;;;;;;10.82;8.30;;;9.30;99.90;;;;;;5050626;28;20399;-60
2024/01/30 09:40:54;;;;;;;12.00;9.02;;;9.40;99.90;;;;;;5031867;28;20052;-62
2024/01/30 09:43:24;;;;;;;12.40;9.15;;;9.50;99.90;;;;;;5054581;28;20756;-61
2024/01/30 09:45:51;;;;;;;16.08;9.60;;;9.50;99.90;;;;;;5051831;28;20049;-61
2024/01/30 09:48:17;;;;;;;11.75;9.32;;;9.50;99.90;;;;;;5052145;28;20053;-62
2024/01/30 09:50:43;;;;;;;12.43;9.02;;;9.30;99.90;;;;;;5042764;28;20456;-63
2024/01/30 09:53:12;;;;;;;12.48;9.27;;;9.40;99.90;;;;;;5047428;28;20041;-62
2024/01/30 09:55:43;;;;;;;15.25;9.40;;;9.60;99.90;;;;;;5043841;28;20061;-62
2024/01/30 09:58:09;;;;;;;12.93;9.45;;;9.60;99.90;;;;;;5051303;28;20072;-61
2024/01/30 10:00:35;;;;;;;13.65;9.27;;;9.80;99.90;;;;;;5052867;28;20037;-61
2024/01/30 10:03:04;;;;;;;15.77;9.55;;;10.00;99.90;;;;;;5049031;28;20045;-61
2024/01/30 10:05:34;;;;;;;13.48;8.95;;;10.00;99.90;;;;;;5049480;28;20041;-61
2024/01/30 10:08:00;;;;;;;13.68;9.07;;;10.40;99.90;;;;;;5048375;28;20045;-61
2024/01/30 10:10:29;;;;;;;12.88;8.88;;;10.30;99.90;;;;;;5052419;28;20045;-63
2024/01/30 10:12:55;;;;;;;14.57;9.45;;;10.40;99.90;;;;;;5045749;28;20052;-61
2024/01/30 10:15:21;;;;;;;16.10;9.32;;;10.40;99.90;;;;;;5052927;28;20071;-61
2024/01/30 10:17:49;;;;;;;16.35;8.68;;;10.40;99.90;;;;;;5053434;28;20052;-60
2024/01/30 10:20:17;;;;;;;16.15;9.45;;;10.50;99.90;;;;;;5041476;28;20457;-61
2024/01/30 10:22:45;;;;;;;15.88;8.75;;;10.40;99.90;;;;;;5030194;28;20484;-62
2024/01/30 10:25:11;;;;;;;11.55;8.48;;;10.50;99.90;;;;;;5041158;28;20071;-62
2024/01/30 10:27:41;;;;;;;15.38;9.50;;;10.70;99.90;;;;;;5052929;28;20041;-60
2024/01/30 10:30:09;;;;;;;12.90;9.20;;;10.60;99.90;;;;;;5050899;28;20071;-61
2024/01/30 10:32:35;;;;;;;12.27;8.73;;;10.80;99.90;;;;;;5050614;28;20049;-61
2024/01/30 10:35:04;;;;;;;16.35;9.25;;;10.80;99.90;;;;;;5062216;28;20729;-62
2024/01/30 10:37:32;;;;;;;16.00;9.35;;;10.50;99.90;;;;;;5052179;28;20496;-63
2024/01/30 10:40:07;;;;;;;15.68;9.50;;;10.70;99.90;;;;;;5052429;28;20056;-60
2024/01/30 10:42:37;;;;;;;14.85;9.38;;;10.60;99.90;;;;;;5047039;28;20045;-61
2024/01/30 10:45:12;;;;;;;17.05;9.43;;;10.70;99.90;;;;;;5049949;28;20380;-62
2024/01/30 10:47:48;;;;;;;14.48;8.90;;;10.90;99.90;;;;;;5048395;28;20040;-60
2024/01/30 10:50:15;;;;;;;16.52;8.95;;;10.90;99.90;;;;;;5047138;28;20049;-60
2024/01/30 10:52:43;;;;;;;11.80;8.82;;;10.60;99.90;;;;;;5048391;28;20048;-61
2024/01/30 10:55:10;;;;;;;15.80;9.77;;;10.70;99.90;;;;;;5040506;28;20053;-61
2024/01/30 10:57:37;;;;;;;13.43;9.40;;;10.80;99.90;;;;;;5065578;28;20654;-60
2024/01/30 11:00:10;;;;;;;15.85;9.02;;;10.80;99.90;;;;;;5048233;28;20049;-62
2024/01/30 11:02:39;;;;;;;16.83;9.73;;;10.90;99.90;;;;;;5061524;28;20412;-62
2024/01/30 11:05:06;;;;;;;15.00;9.63;;;10.70;99.90;;;;;;5048564;28;20044;-60
2024/01/30 11:07:33;;;;;;;14.15;9.73;;;10.90;99.90;;;;;;5051639;28;20059;-61
2024/01/30 11:10:02;;;;;;;17.70;10.10;;;10.90;99.90;;;;;;5050195;28;20119;-61
2024/01/30 11:12:33;;;;;;;15.25;10.27;;;11.00;99.90;;;;;;5046692;28;20046;-61
2024/01/30 11:15:06;;;;;;;18.27;10.98;;;10.90;99.90;;;;;;5050800;28;20045;-60
2024/01/30 11:17:53;;;;;;;12.98;9.90;;;10.90;99.90;;;;;;5066192;28;20375;-61
2024/01/30 11:20:25;;;;;;;13.55;9.88;;;10.90;99.90;;;;;;5047539;28;20041;-65
2024/01/30 11:22:55;;;;;;;14.32;9.02;;;11.00;99.90;;;;;;5050240;28;20464;-61
2024/01/30 11:25:24;;;;;;;15.18;10.00;;;11.00;99.90;;;;;;5063462;28;20048;-60
2024/01/30 11:27:55;;;;;;;15.25;10.15;;;11.00;99.90;;;;;;5062658;28;20372;-61
2024/01/30 11:30:29;;;;;;;13.77;9.98;;;10.90;99.90;;;;;;5046661;28;20128;-61
2024/01/30 11:33:06;;;;;;;14.25;10.35;;;11.10;99.90;;;;;;5049782;28;20045;-61
2024/01/30 11:35:33;;;;;;;13.60;10.23;;;11.20;99.90;;;;;;5050508;28;20114;-60
2024/01/30 11:38:01;;;;;;;12.23;9.30;;;11.00;99.90;;;;;;5049804;28;20357;-60
2024/01/30 11:40:31;;;;;;;14.60;10.15;;;11.20;99.90;;;;;;5050899;28;20040;-61
2024/01/30 11:42:59;;;;;;;9.77;8.13;;;11.20;99.90;;;;;;5049702;28;20110;-62
2024/01/30 11:45:27;;;;;;;9.85;8.60;;;11.30;99.90;;;;;;5051264;28;20052;-60
2024/01/30 11:47:54;;;;;;;15.55;9.05;;;11.40;99.90;;;;;;5051454;28;20037;-60
2024/01/30 11:50:21;;;;;;;15.15;9.60;;;11.20;99.90;;;;;;5050204;28;20464;-61
2024/01/30 11:52:48;;;;;;;14.82;9.63;;;11.30;99.90;;;;;;5050231;28;20495;-60
2024/01/30 11:55:15;;;;;;;14.63;10.25;;;11.50;99.90;;;;;;5051065;28;20078;-59
2024/01/30 11:57:41;;;;;;;16.42;10.32;;;11.20;99.90;;;;;;5050374;28;20045;-61
2024/01/30 12:00:15;;;;;;;13.48;8.88;;;11.00;99.90;;;;;;5051294;28;20052;-58
2024/01/30 12:02:57;;;;;;;21.85;9.77;;;11.00;99.90;;;;;;5048208;28;20045;-62
2024/01/30 12:05:26;;;;;;;14.13;7.68;;;10.80;99.90;;;;;;5044875;28;20053;-59
2024/01/30 12:07:58;;;;;;;16.50;8.25;;;10.80;99.90;;;;;;5050471;28;20128;-60
2024/01/30 12:10:25;;;;;;;19.27;7.55;;;10.70;99.90;;;;;;5048852;28;20055;-60
2024/01/30 12:12:52;;;;;;;19.17;7.28;;;10.60;99.90;;;;;;5061599;28;20049;-62
2024/01/30 12:15:21;;;;;;;12.48;5.40;;;10.70;99.90;;;;;;5049725;28;20056;-60
2024/01/30 12:17:47;;;;;;;14.38;6.13;;;10.60;99.90;;;;;;5066803;28;20060;-61
2024/01/30 12:20:17;;;;;;;16.67;6.65;;;10.60;99.90;;;;;;5049964;28;20104;-61
2024/01/30 12:22:45;;;;;;;13.63;6.30;;;10.70;99.90;;;;;;5047887;28;20037;-62
2024/01/30 12:25:13;;;;;;;7.93;5.13;;;10.70;99.90;;;;;;5059504;28;20047;-61
2024/01/30 12:27:42;;;;;;;13.32;5.82;;;10.70;99.90;;;;;;5050162;28;20407;-63
2024/01/30 12:30:12;;;;;;;12.82;5.45;;;10.70;99.90;;;;;;5047119;28;20045;-60
2024/01/30 12:32:41;;;;;;;9.27;5.20;;;10.60;99.90;;;;;;5050154;28;20056;-62
2024/01/30 12:35:14;;;;;;;12.50;5.25;;;10.70;99.90;;;;;;5043375;28;20445;-60
2024/01/30 12:37:42;;;;;;;15.73;6.45;;;10.50;99.90;;;;;;5049939;28;20064;-62